CPX787 Details

Departure: Chek Lap Kok International (VHHH)
Arrival: Kingsford Smith International Airport (YSSY) at N/A
Route: OCEAN V5 SABNO A583 IBOBI A583 ZAM A461 BUTPA A461 DN J251 TN T74 ENPAG H319 TARAL Y59 RIVET
Notes:


Current Weather Information
VHHH 171700Z 21008KT 160V230 9999 FEW025 29/24 Q1006 NOSIG
YSSY 171700Z 33005KT CAVOK 10/07 Q1020 NOSIG